sensor_id;sensor_type;location;lat;lon;timestamp;P1;durP1;ratioP1;P2;durP2;ratioP2
34212;SDS011;20477;51.390;8.102;2024-03-23T00:54:19;26.17;;;6.88;;
34212;SDS011;20477;51.390;8.102;2024-03-23T00:56:45;23.63;;;6.93;;
34212;SDS011;20477;51.390;8.102;2024-03-23T00:59:11;27.50;;;7.00;;
34212;SDS011;20477;51.390;8.102;2024-03-23T01:01:41;23.90;;;7.25;;
34212;SDS011;20477;51.390;8.102;2024-03-23T01:04:08;29.33;;;7.90;;
34212;SDS011;20477;51.390;8.102;2024-03-23T01:06:34;21.95;;;8.27;;
34212;SDS011;20477;51.390;8.102;2024-03-23T01:09:00;21.85;;;6.35;;
34212;SDS011;20477;51.390;8.102;2024-03-23T01:11:27;14.85;;;5.50;;
34212;SDS011;20477;51.390;8.102;2024-03-23T01:13:55;18.00;;;6.05;;
34212;SDS011;20477;51.390;8.102;2024-03-23T01:16:21;15.65;;;5.00;;
34212;SDS011;20477;51.390;8.102;2024-03-23T01:18:49;22.50;;;6.10;;
34212;SDS011;20477;51.390;8.102;2024-03-23T01:21:15;18.98;;;6.50;;
34212;SDS011;20477;51.390;8.102;2024-03-23T01:23:41;15.02;;;5.50;;
34212;SDS011;20477;51.390;8.102;2024-03-23T01:26:08;20.20;;;5.90;;
34212;SDS011;20477;51.390;8.102;2024-03-23T01:28:34;16.17;;;4.78;;
34212;SDS011;20477;51.390;8.102;2024-03-23T01:31:03;22.13;;;5.30;;
34212;SDS011;20477;51.390;8.102;2024-03-23T01:33:29;10.95;;;3.05;;
34212;SDS011;20477;51.390;8.102;2024-03-23T01:35:57;7.10;;;2.45;;
34212;SDS011;20477;51.390;8.102;2024-03-23T01:38:23;13.50;;;2.30;;
34212;SDS011;20477;51.390;8.102;2024-03-23T01:40:49;10.32;;;2.67;;
34212;SDS011;20477;51.390;8.102;2024-03-23T01:43:16;9.73;;;2.67;;
34212;SDS011;20477;51.390;8.102;2024-03-23T01:45:42;5.47;;;2.35;;
34212;SDS011;20477;51.390;8.102;2024-03-23T01:48:08;9.25;;;2.08;;
34212;SDS011;20477;51.390;8.102;2024-03-23T01:50:35;8.75;;;2.78;;
34212;SDS011;20477;51.390;8.102;2024-03-23T01:53:03;12.93;;;2.58;;
34212;SDS011;20477;51.390;8.102;2024-03-23T01:55:30;10.57;;;2.72;;
34212;SDS011;20477;51.390;8.102;2024-03-23T01:57:57;10.43;;;3.28;;
34212;SDS011;20477;51.390;8.102;2024-03-23T02:00:23;10.77;;;2.72;;
34212;SDS011;20477;51.390;8.102;2024-03-23T02:02:50;11.20;;;3.45;;
34212;SDS011;20477;51.390;8.102;2024-03-23T02:05:16;16.02;;;2.97;;
34212;SDS011;20477;51.390;8.102;2024-03-23T02:07:42;14.98;;;3.63;;
34212;SDS011;20477;51.390;8.102;2024-03-23T02:10:10;8.85;;;3.58;;
34212;SDS011;20477;51.390;8.102;2024-03-23T02:12:37;16.25;;;4.22;;
34212;SDS011;20477;51.390;8.102;2024-03-23T02:15:03;15.75;;;3.70;;
34212;SDS011;20477;51.390;8.102;2024-03-23T02:17:30;13.10;;;3.75;;
34212;SDS011;20477;51.390;8.102;2024-03-23T02:19:56;19.65;;;4.07;;
34212;SDS011;20477;51.390;8.102;2024-03-23T02:22:23;20.00;;;3.72;;
34212;SDS011;20477;51.390;8.102;2024-03-23T02:24:50;23.00;;;4.28;;
34212;SDS011;20477;51.390;8.102;2024-03-23T02:27:17;21.98;;;4.28;;
34212;SDS011;20477;51.390;8.102;2024-03-23T02:29:43;23.05;;;4.07;;
34212;SDS011;20477;51.390;8.102;2024-03-23T02:32:09;24.17;;;4.80;;
34212;SDS011;20477;51.390;8.102;2024-03-23T02:34:36;12.77;;;3.33;;
34212;SDS011;20477;51.390;8.102;2024-03-23T02:37:02;14.43;;;3.22;;
34212;SDS011;20477;51.390;8.102;2024-03-23T02:39:28;8.68;;;2.88;;
34212;SDS011;20477;51.390;8.102;2024-03-23T02:41:56;10.85;;;2.55;;
34212;SDS011;20477;51.390;8.102;2024-03-23T02:44:23;5.28;;;2.40;;
34212;SDS011;20477;51.390;8.102;2024-03-23T02:46:49;11.95;;;2.47;;
34212;SDS011;20477;51.390;8.102;2024-03-23T02:49:16;8.02;;;2.67;;
34212;SDS011;20477;51.390;8.102;2024-03-23T02:51:42;10.45;;;2.42;;
34212;SDS011;20477;51.390;8.102;2024-03-23T02:54:08;9.98;;;2.75;;
34212;SDS011;20477;51.390;8.102;2024-03-23T02:56:34;9.85;;;2.67;;
34212;SDS011;20477;51.390;8.102;2024-03-23T02:59:02;8.20;;;2.20;;
34212;SDS011;20477;51.390;8.102;2024-03-23T03:01:29;9.13;;;2.78;;
34212;SDS011;20477;51.390;8.102;2024-03-23T03:03:55;10.43;;;2.42;;
34212;SDS011;20477;51.390;8.102;2024-03-23T03:06:25;11.30;;;2.55;;
34212;SDS011;20477;51.390;8.102;2024-03-23T03:08:51;6.82;;;1.88;;
34212;SDS011;20477;51.390;8.102;2024-03-23T03:11:17;11.90;;;2.47;;
34212;SDS011;20477;51.390;8.102;2024-03-23T03:13:44;10.45;;;2.42;;
34212;SDS011;20477;51.390;8.102;2024-03-23T03:16:12;9.57;;;2.00;;
34212;SDS011;20477;51.390;8.102;2024-03-23T03:18:38;7.55;;;2.13;;
34212;SDS011;20477;51.390;8.102;2024-03-23T03:21:05;7.50;;;2.15;;
34212;SDS011;20477;51.390;8.102;2024-03-23T03:23:31;9.48;;;2.30;;
34212;SDS011;20477;51.390;8.102;2024-03-23T03:25:58;9.50;;;2.03;;
34212;SDS011;20477;51.390;8.102;2024-03-23T03:28:24;9.35;;;2.13;;
34212;SDS011;20477;51.390;8.102;2024-03-23T03:30:50;10.48;;;2.08;;
34212;SDS011;20477;51.390;8.102;2024-03-23T03:33:19;9.45;;;2.47;;
34212;SDS011;20477;51.390;8.102;2024-03-23T03:35:45;5.18;;;2.17;;
34212;SDS011;20477;51.390;8.102;2024-03-23T03:38:12;14.13;;;2.40;;
34212;SDS011;20477;51.390;8.102;2024-03-23T03:40:38;9.38;;;2.42;;
34212;SDS011;20477;51.390;8.102;2024-03-23T03:43:04;14.27;;;3.40;;
34212;SDS011;20477;51.390;8.102;2024-03-23T03:45:31;14.07;;;3.95;;
34212;SDS011;20477;51.390;8.102;2024-03-23T03:47:57;12.38;;;3.75;;
34212;SDS011;20477;51.390;8.102;2024-03-23T03:50:25;13.07;;;3.78;;
34212;SDS011;20477;51.390;8.102;2024-03-23T03:52:51;10.35;;;4.22;;
34212;SDS011;20477;51.390;8.102;2024-03-23T03:55:18;13.50;;;4.22;;
34212;SDS011;20477;51.390;8.102;2024-03-23T03:57:44;18.58;;;4.97;;
34212;SDS011;20477;51.390;8.102;2024-03-23T04:00:11;12.50;;;4.50;;
34212;SDS011;20477;51.390;8.102;2024-03-23T04:02:37;12.80;;;3.90;;
34212;SDS011;20477;51.390;8.102;2024-03-23T04:05:03;9.93;;;3.40;;
34212;SDS011;20477;51.390;8.102;2024-03-23T04:07:31;12.68;;;3.13;;
34212;SDS011;20477;51.390;8.102;2024-03-23T04:09:58;10.68;;;3.20;;
34212;SDS011;20477;51.390;8.102;2024-03-23T04:12:24;14.70;;;3.85;;
34212;SDS011;20477;51.390;8.102;2024-03-23T04:14:50;13.65;;;3.63;;
34212;SDS011;20477;51.390;8.102;2024-03-23T04:17:17;14.23;;;3.80;;
34212;SDS011;20477;51.390;8.102;2024-03-23T04:19:44;7.28;;;2.75;;
34212;SDS011;20477;51.390;8.102;2024-03-23T04:22:10;17.92;;;3.17;;
34212;SDS011;20477;51.390;8.102;2024-03-23T04:24:38;12.80;;;3.42;;
34212;SDS011;20477;51.390;8.102;2024-03-23T04:27:04;10.73;;;3.10;;
34212;SDS011;20477;51.390;8.102;2024-03-23T04:29:30;8.60;;;2.50;;
34212;SDS011;20477;51.390;8.102;2024-03-23T04:31:57;19.08;;;3.28;;
34212;SDS011;20477;51.390;8.102;2024-03-23T04:34:23;16.52;;;3.67;;
34212;SDS011;20477;51.390;8.102;2024-03-23T04:36:53;12.05;;;3.20;;
34212;SDS011;20477;51.390;8.102;2024-03-23T04:39:19;10.73;;;3.50;;
34212;SDS011;20477;51.390;8.102;2024-03-23T04:41:47;16.55;;;4.50;;
34212;SDS011;20477;51.390;8.102;2024-03-23T04:44:13;15.73;;;4.43;;
34212;SDS011;20477;51.390;8.102;2024-03-23T04:46:39;11.85;;;3.53;;
34212;SDS011;20477;51.390;8.102;2024-03-23T04:49:06;13.15;;;3.85;;
34212;SDS011;20477;51.390;8.102;2024-03-23T04:51:35;12.52;;;3.67;;
34212;SDS011;20477;51.390;8.102;2024-03-23T04:54:01;16.05;;;3.97;;
34212;SDS011;20477;51.390;8.102;2024-03-23T04:56:29;14.82;;;4.13;;
34212;SDS011;20477;51.390;8.102;2024-03-23T04:58:57;16.67;;;4.03;;
34212;SDS011;20477;51.390;8.102;2024-03-23T05:01:24;21.67;;;4.13;;
34212;SDS011;20477;51.390;8.102;2024-03-23T05:03:50;13.40;;;4.22;;
34212;SDS011;20477;51.390;8.102;2024-03-23T05:06:16;18.58;;;5.50;;
34212;SDS011;20477;51.390;8.102;2024-03-23T05:08:42;16.92;;;4.35;;
34212;SDS011;20477;51.390;8.102;2024-03-23T05:11:09;13.88;;;4.07;;
34212;SDS011;20477;51.390;8.102;2024-03-23T05:13:35;19.52;;;4.10;;
34212;SDS011;20477;51.390;8.102;2024-03-23T05:16:04;13.95;;;5.60;;
34212;SDS011;20477;51.390;8.102;2024-03-23T05:18:30;17.80;;;6.80;;
34212;SDS011;20477;51.390;8.102;2024-03-23T05:20:56;14.77;;;4.90;;
34212;SDS011;20477;51.390;8.102;2024-03-23T05:23:23;18.75;;;4.22;;
34212;SDS011;20477;51.390;8.102;2024-03-23T05:25:50;15.38;;;4.03;;
34212;SDS011;20477;51.390;8.102;2024-03-23T05:28:16;22.70;;;3.85;;
34212;SDS011;20477;51.390;8.102;2024-03-23T05:30:44;18.48;;;3.90;;
34212;SDS011;20477;51.390;8.102;2024-03-23T05:33:12;19.05;;;3.08;;
34212;SDS011;20477;51.390;8.102;2024-03-23T05:35:38;14.38;;;3.88;;
34212;SDS011;20477;51.390;8.102;2024-03-23T05:38:04;19.73;;;4.18;;
34212;SDS011;20477;51.390;8.102;2024-03-23T05:40:30;16.80;;;4.10;;
34212;SDS011;20477;51.390;8.102;2024-03-23T05:42:57;12.90;;;3.30;;
34212;SDS011;20477;51.390;8.102;2024-03-23T05:45:23;14.13;;;3.85;;
34212;SDS011;20477;51.390;8.102;2024-03-23T05:47:49;11.27;;;3.17;;
34212;SDS011;20477;51.390;8.102;2024-03-23T05:50:17;18.30;;;3.97;;
34212;SDS011;20477;51.390;8.102;2024-03-23T05:52:44;16.00;;;4.18;;
34212;SDS011;20477;51.390;8.102;2024-03-23T05:55:10;13.10;;;4.15;;
34212;SDS011;20477;51.390;8.102;2024-03-23T05:57:36;12.50;;;3.70;;
34212;SDS011;20477;51.390;8.102;2024-03-23T06:00:03;13.90;;;3.42;;
34212;SDS011;20477;51.390;8.102;2024-03-23T06:02:29;16.92;;;3.42;;
34212;SDS011;20477;51.390;8.102;2024-03-23T06:04:56;23.08;;;3.53;;
34212;SDS011;20477;51.390;8.102;2024-03-23T06:07:24;15.68;;;3.45;;
34212;SDS011;20477;51.390;8.102;2024-03-23T06:09:51;12.70;;;2.95;;
34212;SDS011;20477;51.390;8.102;2024-03-23T06:12:17;12.90;;;2.92;;
34212;SDS011;20477;51.390;8.102;2024-03-23T06:14:44;17.00;;;4.40;;
34212;SDS011;20477;51.390;8.102;2024-03-23T06:17:10;16.95;;;3.75;;
34212;SDS011;20477;51.390;8.102;2024-03-23T06:19:37;15.20;;;3.83;;
34212;SDS011;20477;51.390;8.102;2024-03-23T06:22:03;17.63;;;3.97;;
34212;SDS011;20477;51.390;8.102;2024-03-23T06:24:31;8.95;;;3.20;;
34212;SDS011;20477;51.390;8.102;2024-03-23T06:26:58;20.45;;;4.00;;
34212;SDS011;20477;51.390;8.102;2024-03-23T06:29:24;15.25;;;3.92;;
34212;SDS011;20477;51.390;8.102;2024-03-23T06:31:54;17.27;;;3.63;;
34212;SDS011;20477;51.390;8.102;2024-03-23T06:34:20;16.65;;;4.20;;
34212;SDS011;20477;51.390;8.102;2024-03-23T06:36:46;16.75;;;3.83;;
34212;SDS011;20477;51.390;8.102;2024-03-23T06:39:13;17.77;;;4.28;;
34212;SDS011;20477;51.390;8.102;2024-03-23T06:41:40;13.88;;;3.67;;
34212;SDS011;20477;51.390;8.102;2024-03-23T06:44:07;14.13;;;3.40;;
34212;SDS011;20477;51.390;8.102;2024-03-23T06:46:33;14.88;;;3.83;;
34212;SDS011;20477;51.390;8.102;2024-03-23T06:48:59;14.82;;;3.65;;
34212;SDS011;20477;51.390;8.102;2024-03-23T06:51:26;10.48;;;3.47;;
34212;SDS011;20477;51.390;8.102;2024-03-23T06:53:52;18.98;;;3.83;;
34212;SDS011;20477;51.390;8.102;2024-03-23T06:56:18;24.73;;;5.57;;
34212;SDS011;20477;51.390;8.102;2024-03-23T06:58:46;16.63;;;4.25;;
34212;SDS011;20477;51.390;8.102;2024-03-23T07:01:12;14.20;;;4.57;;
34212;SDS011;20477;51.390;8.102;2024-03-23T07:03:38;23.00;;;5.45;;
34212;SDS011;20477;51.390;8.102;2024-03-23T07:06:05;22.95;;;5.57;;
34212;SDS011;20477;51.390;8.102;2024-03-23T07:08:31;16.73;;;4.90;;
34212;SDS011;20477;51.390;8.102;2024-03-23T07:10:57;16.85;;;5.10;;
34212;SDS011;20477;51.390;8.102;2024-03-23T07:13:24;16.45;;;5.00;;
34212;SDS011;20477;51.390;8.102;2024-03-23T07:16:04;23.30;;;7.60;;
34212;SDS011;20477;51.390;8.102;2024-03-23T07:18:30;21.10;;;6.65;;
34212;SDS011;20477;51.390;8.102;2024-03-23T07:20:57;17.08;;;5.80;;
34212;SDS011;20477;51.390;8.102;2024-03-23T07:23:24;20.73;;;6.40;;
34212;SDS011;20477;51.390;8.102;2024-03-23T07:25:57;13.38;;;6.35;;
34212;SDS011;20477;51.390;8.102;2024-03-23T07:28:23;17.25;;;6.18;;
34212;SDS011;20477;51.390;8.102;2024-03-23T07:31:01;21.83;;;7.03;;
34212;SDS011;20477;51.390;8.102;2024-03-23T07:33:27;21.90;;;7.15;;
34212;SDS011;20477;51.390;8.102;2024-03-23T07:35:54;15.73;;;6.82;;
34212;SDS011;20477;51.390;8.102;2024-03-23T07:38:21;22.30;;;8.65;;
34212;SDS011;20477;51.390;8.102;2024-03-23T07:40:47;19.70;;;7.63;;
34212;SDS011;20477;51.390;8.102;2024-03-23T07:43:14;20.45;;;8.93;;
34212;SDS011;20477;51.390;8.102;2024-03-23T07:45:40;30.13;;;10.30;;
34212;SDS011;20477;51.390;8.102;2024-03-23T07:48:08;22.08;;;8.27;;
34212;SDS011;20477;51.390;8.102;2024-03-23T07:50:35;18.13;;;8.38;;
34212;SDS011;20477;51.390;8.102;2024-03-23T07:53:01;26.90;;;11.18;;
34212;SDS011;20477;51.390;8.102;2024-03-23T07:55:27;17.05;;;9.68;;
34212;SDS011;20477;51.390;8.102;2024-03-23T07:57:53;23.42;;;12.38;;
34212;SDS011;20477;51.390;8.102;2024-03-23T08:00:20;25.90;;;9.77;;
34212;SDS011;20477;51.390;8.102;2024-03-23T08:02:46;24.33;;;10.20;;
34212;SDS011;20477;51.390;8.102;2024-03-23T08:05:14;22.40;;;8.50;;
34212;SDS011;20477;51.390;8.102;2024-03-23T08:07:40;21.52;;;8.80;;
34212;SDS011;20477;51.390;8.102;2024-03-23T08:10:07;26.73;;;10.77;;
34212;SDS011;20477;51.390;8.102;2024-03-23T08:12:33;22.85;;;10.43;;
34212;SDS011;20477;51.390;8.102;2024-03-23T08:14:59;26.45;;;10.85;;
34212;SDS011;20477;51.390;8.102;2024-03-23T08:17:25;27.00;;;11.32;;
34212;SDS011;20477;51.390;8.102;2024-03-23T08:19:52;26.98;;;12.63;;
34212;SDS011;20477;51.390;8.102;2024-03-23T08:22:20;24.88;;;11.15;;
34212;SDS011;20477;51.390;8.102;2024-03-23T08:24:46;26.73;;;12.13;;
34212;SDS011;20477;51.390;8.102;2024-03-23T08:27:12;27.88;;;13.57;;
34212;SDS011;20477;51.390;8.102;2024-03-23T08:29:39;28.42;;;13.70;;
34212;SDS011;20477;51.390;8.102;2024-03-23T08:32:05;25.08;;;12.73;;
34212;SDS011;20477;51.390;8.102;2024-03-23T08:34:31;30.25;;;13.45;;
34212;SDS011;20477;51.390;8.102;2024-03-23T08:36:58;27.75;;;12.63;;
34212;SDS011;20477;51.390;8.102;2024-03-23T08:39:25;25.95;;;11.93;;
34212;SDS011;20477;51.390;8.102;2024-03-23T08:41:52;33.85;;;11.63;;
34212;SDS011;20477;51.390;8.102;2024-03-23T08:44:18;25.27;;;10.60;;
34212;SDS011;20477;51.390;8.102;2024-03-23T08:46:45;30.38;;;12.38;;
34212;SDS011;20477;51.390;8.102;2024-03-23T08:49:12;28.90;;;10.13;;
34212;SDS011;20477;51.390;8.102;2024-03-23T08:51:38;27.27;;;10.70;;
34212;SDS011;20477;51.390;8.102;2024-03-23T08:54:05;25.17;;;10.40;;
34212;SDS011;20477;51.390;8.102;2024-03-23T08:56:33;24.65;;;10.50;;
34212;SDS011;20477;51.390;8.102;2024-03-23T08:58:59;25.70;;;11.07;;
34212;SDS011;20477;51.390;8.102;2024-03-23T09:01:25;28.17;;;10.70;;
34212;SDS011;20477;51.390;8.102;2024-03-23T09:03:51;24.55;;;6.95;;
34212;SDS011;20477;51.390;8.102;2024-03-23T09:06:18;26.67;;;10.23;;
34212;SDS011;20477;51.390;8.102;2024-03-23T09:08:44;23.55;;;9.40;;
34212;SDS011;20477;51.390;8.102;2024-03-23T09:11:11;26.08;;;9.55;;
34212;SDS011;20477;51.390;8.102;2024-03-23T09:13:39;23.45;;;8.77;;
34212;SDS011;20477;51.390;8.102;2024-03-23T09:16:06;29.17;;;9.23;;
34212;SDS011;20477;51.390;8.102;2024-03-23T09:18:32;20.45;;;7.80;;
34212;SDS011;20477;51.390;8.102;2024-03-23T09:20:59;25.55;;;7.32;;
34212;SDS011;20477;51.390;8.102;2024-03-23T09:23:25;29.27;;;8.73;;
34212;SDS011;20477;51.390;8.102;2024-03-23T09:25:52;26.45;;;8.27;;
34212;SDS011;20477;51.390;8.102;2024-03-23T09:28:18;22.58;;;7.45;;
34212;SDS011;20477;51.390;8.102;2024-03-23T09:30:46;23.60;;;6.80;;
34212;SDS011;20477;51.390;8.102;2024-03-23T09:33:12;19.77;;;7.15;;
34212;SDS011;20477;51.390;8.102;2024-03-23T09:35:40;19.40;;;5.97;;
34212;SDS011;20477;51.390;8.102;2024-03-23T09:38:07;19.17;;;5.93;;
34212;SDS011;20477;51.390;8.102;2024-03-23T09:40:33;23.45;;;6.10;;
34212;SDS011;20477;51.390;8.102;2024-03-23T09:42:59;16.73;;;5.65;;
34212;SDS011;20477;51.390;8.102;2024-03-23T09:45:26;17.90;;;4.97;;
34212;SDS011;20477;51.390;8.102;2024-03-23T09:47:54;15.57;;;4.47;;
34212;SDS011;20477;51.390;8.102;2024-03-23T09:50:21;17.48;;;4.60;;
34212;SDS011;20477;51.390;8.102;2024-03-23T09:52:48;18.38;;;4.18;;
34212;SDS011;20477;51.390;8.102;2024-03-23T09:55:14;13.48;;;3.60;;
34212;SDS011;20477;51.390;8.102;2024-03-23T09:57:40;14.02;;;4.07;;
34212;SDS011;20477;51.390;8.102;2024-03-23T10:00:07;24.13;;;5.05;;
34212;SDS011;20477;51.390;8.102;2024-03-23T10:02:33;15.93;;;4.45;;
34212;SDS011;20477;51.390;8.102;2024-03-23T10:05:01;19.98;;;4.40;;
34212;SDS011;20477;51.390;8.102;2024-03-23T10:07:28;17.90;;;4.20;;
34212;SDS011;20477;51.390;8.102;2024-03-23T10:09:55;24.67;;;4.97;;
34212;SDS011;20477;51.390;8.102;2024-03-23T10:12:22;12.35;;;3.47;;
34212;SDS011;20477;51.390;8.102;2024-03-23T10:14:48;14.43;;;3.40;;
34212;SDS011;20477;51.390;8.102;2024-03-23T10:17:15;11.07;;;3.05;;
34212;SDS011;20477;51.390;8.102;2024-03-23T10:19:42;15.13;;;3.05;;
34212;SDS011;20477;51.390;8.102;2024-03-23T10:22:12;10.13;;;2.72;;
34212;SDS011;20477;51.390;8.102;2024-03-23T10:24:39;7.07;;;2.28;;
34212;SDS011;20477;51.390;8.102;2024-03-23T10:27:05;12.10;;;2.08;;
34212;SDS011;20477;51.390;8.102;2024-03-23T10:29:31;4.25;;;1.60;;
34212;SDS011;20477;51.390;8.102;2024-03-23T10:32:07;3.70;;;1.40;;
34212;SDS011;20477;51.390;8.102;2024-03-23T10:34:33;4.70;;;1.52;;
34212;SDS011;20477;51.390;8.102;2024-03-23T10:37:01;5.60;;;1.75;;
34212;SDS011;20477;51.390;8.102;2024-03-23T10:39:30;8.27;;;2.00;;
34212;SDS011;20477;51.390;8.102;2024-03-23T10:41:58;10.68;;;2.20;;
34212;SDS011;20477;51.390;8.102;2024-03-23T10:44:26;5.72;;;2.00;;
34212;SDS011;20477;51.390;8.102;2024-03-23T10:46:53;12.18;;;2.40;;
34212;SDS011;20477;51.390;8.102;2024-03-23T10:49:19;6.90;;;2.50;;
34212;SDS011;20477;51.390;8.102;2024-03-23T10:51:45;8.05;;;2.20;;
34212;SDS011;20477;51.390;8.102;2024-03-23T10:54:11;6.88;;;2.60;;
34212;SDS011;20477;51.390;8.102;2024-03-23T10:56:39;12.02;;;2.80;;
34212;SDS011;20477;51.390;8.102;2024-03-23T10:59:06;8.90;;;2.60;;
34212;SDS011;20477;51.390;8.102;2024-03-23T11:01:34;8.93;;;2.50;;
34212;SDS011;20477;51.390;8.102;2024-03-23T11:04:00;8.90;;;2.83;;
34212;SDS011;20477;51.390;8.102;2024-03-23T11:06:33;11.63;;;3.00;;
34212;SDS011;20477;51.390;8.102;2024-03-23T11:09:00;8.88;;;2.78;;
34212;SDS011;20477;51.390;8.102;2024-03-23T11:11:26;9.70;;;3.05;;
34212;SDS011;20477;51.390;8.102;2024-03-23T11:13:54;9.77;;;2.83;;
34212;SDS011;20477;51.390;8.102;2024-03-23T11:16:24;10.90;;;3.38;;
34212;SDS011;20477;51.390;8.102;2024-03-23T11:18:51;7.28;;;2.72;;
34212;SDS011;20477;51.390;8.102;2024-03-23T11:24:14;7.57;;;2.45;;
34212;SDS011;20477;51.390;8.102;2024-03-23T11:26:41;7.05;;;2.00;;
34212;SDS011;20477;51.390;8.102;2024-03-23T11:29:12;14.02;;;3.80;;
34212;SDS011;20477;51.390;8.102;2024-03-23T11:31:39;10.60;;;2.75;;
34212;SDS011;20477;51.390;8.102;2024-03-23T11:34:11;9.05;;;2.67;;
34212;SDS011;20477;51.390;8.102;2024-03-23T11:36:37;7.78;;;2.25;;
34212;SDS011;20477;51.390;8.102;2024-03-23T11:39:11;16.38;;;2.25;;
34212;SDS011;20477;51.390;8.102;2024-03-23T11:41:45;8.93;;;2.65;;
34212;SDS011;20477;51.390;8.102;2024-03-23T11:44:15;13.23;;;3.08;;
34212;SDS011;20477;51.390;8.102;2024-03-23T11:46:42;10.85;;;2.58;;
34212;SDS011;20477;51.390;8.102;2024-03-23T11:49:19;11.73;;;2.35;;
34212;SDS011;20477;51.390;8.102;2024-03-23T11:51:45;9.63;;;2.80;;
34212;SDS011;20477;51.390;8.102;2024-03-23T11:54:12;7.82;;;2.30;;
34212;SDS011;20477;51.390;8.102;2024-03-23T11:56:39;9.30;;;2.70;;
34212;SDS011;20477;51.390;8.102;2024-03-23T11:59:06;12.93;;;3.33;;
34212;SDS011;20477;51.390;8.102;2024-03-23T12:01:33;9.57;;;3.28;;
34212;SDS011;20477;51.390;8.102;2024-03-23T12:04:00;10.85;;;2.50;;
34212;SDS011;20477;51.390;8.102;2024-03-23T12:06:26;7.00;;;2.20;;
34212;SDS011;20477;51.390;8.102;2024-03-23T12:08:52;11.55;;;2.15;;
34212;SDS011;20477;51.390;8.102;2024-03-23T12:11:19;5.82;;;1.65;;
34212;SDS011;20477;51.390;8.102;2024-03-23T12:13:45;8.02;;;2.47;;
34212;SDS011;20477;51.390;8.102;2024-03-23T12:16:14;5.72;;;2.25;;
34212;SDS011;20477;51.390;8.102;2024-03-23T12:18:42;4.18;;;1.38;;
34212;SDS011;20477;51.390;8.102;2024-03-23T12:21:09;3.50;;;1.50;;
34212;SDS011;20477;51.390;8.102;2024-03-23T12:23:35;6.82;;;1.40;;
34212;SDS011;20477;51.390;8.102;2024-03-23T12:26:02;4.72;;;1.98;;
34212;SDS011;20477;51.390;8.102;2024-03-23T12:28:28;8.35;;;2.10;;
34212;SDS011;20477;51.390;8.102;2024-03-23T12:30:55;4.70;;;2.10;;
34212;SDS011;20477;51.390;8.102;2024-03-23T12:33:21;6.47;;;2.20;;
34212;SDS011;20477;51.390;8.102;2024-03-23T12:35:49;2.45;;;1.58;;
34212;SDS011;20477;51.390;8.102;2024-03-23T12:38:15;4.35;;;1.40;;
34212;SDS011;20477;51.390;8.102;2024-03-23T12:40:42;7.28;;;2.40;;
34212;SDS011;20477;51.390;8.102;2024-03-23T12:43:08;3.47;;;1.65;;
34212;SDS011;20477;51.390;8.102;2024-03-23T12:45:34;6.57;;;1.50;;
34212;SDS011;20477;51.390;8.102;2024-03-23T12:48:01;5.55;;;2.00;;
34212;SDS011;20477;51.390;8.102;2024-03-23T12:50:27;6.18;;;1.38;;
34212;SDS011;20477;51.390;8.102;2024-03-23T12:52:55;4.68;;;1.48;;
34212;SDS011;20477;51.390;8.102;2024-03-23T12:55:21;6.63;;;1.08;;
34212;SDS011;20477;51.390;8.102;2024-03-23T12:57:47;5.88;;;1.30;;
34212;SDS011;20477;51.390;8.102;2024-03-23T13:00:14;5.88;;;1.52;;
34212;SDS011;20477;51.390;8.102;2024-03-23T13:02:40;4.90;;;2.20;;
34212;SDS011;20477;51.390;8.102;2024-03-23T13:05:07;4.20;;;1.65;;
34212;SDS011;20477;51.390;8.102;2024-03-23T13:07:33;3.50;;;1.30;;
34212;SDS011;20477;51.390;8.102;2024-03-23T13:10:01;7.22;;;2.15;;
34212;SDS011;20477;51.390;8.102;2024-03-23T13:12:28;7.00;;;2.40;;
34212;SDS011;20477;51.390;8.102;2024-03-23T13:14:54;6.75;;;1.80;;
34212;SDS011;20477;51.390;8.102;2024-03-23T13:17:20;10.27;;;2.00;;
34212;SDS011;20477;51.390;8.102;2024-03-23T13:19:46;6.35;;;1.98;;
34212;SDS011;20477;51.390;8.102;2024-03-23T13:22:13;6.97;;;1.73;;
34212;SDS011;20477;51.390;8.102;2024-03-23T13:24:39;8.82;;;2.08;;
34212;SDS011;20477;51.390;8.102;2024-03-23T13:27:07;8.50;;;1.98;;
34212;SDS011;20477;51.390;8.102;2024-03-23T13:29:33;7.10;;;1.77;;
34212;SDS011;20477;51.390;8.102;2024-03-23T13:32:00;3.33;;;1.60;;
34212;SDS011;20477;51.390;8.102;2024-03-23T13:34:26;3.67;;;1.63;;
34212;SDS011;20477;51.390;8.102;2024-03-23T13:36:53;7.07;;;1.50;;
34212;SDS011;20477;51.390;8.102;2024-03-23T13:39:19;4.07;;;1.20;;
34212;SDS011;20477;51.390;8.102;2024-03-23T13:41:45;7.65;;;1.98;;
34212;SDS011;20477;51.390;8.102;2024-03-23T13:44:14;4.88;;;1.20;;
34212;SDS011;20477;51.390;8.102;2024-03-23T13:46:40;3.22;;;1.00;;
34212;SDS011;20477;51.390;8.102;2024-03-23T13:49:07;4.18;;;1.25;;
34212;SDS011;20477;51.390;8.102;2024-03-23T13:51:33;5.18;;;1.35;;
34212;SDS011;20477;51.390;8.102;2024-03-23T13:54:00;6.50;;;1.52;;
34212;SDS011;20477;51.390;8.102;2024-03-23T13:56:28;7.38;;;1.55;;
34212;SDS011;20477;51.390;8.102;2024-03-23T13:58:54;3.40;;;1.17;;
34212;SDS011;20477;51.390;8.102;2024-03-23T14:01:22;5.18;;;1.52;;
34212;SDS011;20477;51.390;8.102;2024-03-23T14:03:48;4.03;;;1.25;;
34212;SDS011;20477;51.390;8.102;2024-03-23T14:06:15;4.28;;;1.10;;
34212;SDS011;20477;51.390;8.102;2024-03-23T14:08:41;6.13;;;1.45;;
34212;SDS011;20477;51.390;8.102;2024-03-23T14:11:07;4.35;;;1.60;;
34212;SDS011;20477;51.390;8.102;2024-03-23T14:13:34;5.03;;;1.48;;
34212;SDS011;20477;51.390;8.102;2024-03-23T14:16:00;7.15;;;2.25;;
34212;SDS011;20477;51.390;8.102;2024-03-23T14:18:29;8.05;;;1.38;;
34212;SDS011;20477;51.390;8.102;2024-03-23T14:20:56;8.85;;;2.53;;
34212;SDS011;20477;51.390;8.102;2024-03-23T14:23:23;5.22;;;1.60;;
34212;SDS011;20477;51.390;8.102;2024-03-23T14:25:49;4.65;;;1.52;;
34212;SDS011;20477;51.390;8.102;2024-03-23T14:28:16;7.03;;;2.65;;
34212;SDS011;20477;51.390;8.102;2024-03-23T14:30:42;4.32;;;1.33;;
34212;SDS011;20477;51.390;8.102;2024-03-23T14:33:08;8.32;;;2.65;;
34212;SDS011;20477;51.390;8.102;2024-03-23T14:35:36;4.70;;;2.00;;
34212;SDS011;20477;51.390;8.102;2024-03-23T14:38:03;10.13;;;3.55;;
34212;SDS011;20477;51.390;8.102;2024-03-23T14:40:29;5.28;;;1.70;;
34212;SDS011;20477;51.390;8.102;2024-03-23T14:42:56;8.43;;;2.40;;
34212;SDS011;20477;51.390;8.102;2024-03-23T14:45:22;6.82;;;3.42;;
34212;SDS011;20477;51.390;8.102;2024-03-23T14:47:48;5.47;;;2.28;;
34212;SDS011;20477;51.390;8.102;2024-03-23T14:50:15;10.85;;;2.60;;
34212;SDS011;20477;51.390;8.102;2024-03-23T14:52:43;10.13;;;2.38;;
34212;SDS011;20477;51.390;8.102;2024-03-23T14:55:10;5.72;;;2.13;;
34212;SDS011;20477;51.390;8.102;2024-03-23T14:57:36;11.15;;;2.38;;
34212;SDS011;20477;51.390;8.102;2024-03-23T15:00:02;8.07;;;2.50;;
34212;SDS011;20477;51.390;8.102;2024-03-23T15:02:29;9.48;;;2.95;;
34212;SDS011;20477;51.390;8.102;2024-03-23T15:04:55;7.68;;;2.25;;
34212;SDS011;20477;51.390;8.102;2024-03-23T15:07:21;7.38;;;2.15;;
34212;SDS011;20477;51.390;8.102;2024-03-23T15:09:49;6.10;;;1.58;;
34212;SDS011;20477;51.390;8.102;2024-03-23T15:12:16;10.25;;;1.70;;
34212;SDS011;20477;51.390;8.102;2024-03-23T15:14:42;4.50;;;1.65;;
34212;SDS011;20477;51.390;8.102;2024-03-23T15:17:08;3.83;;;1.75;;
34212;SDS011;20477;51.390;8.102;2024-03-23T15:19:35;8.45;;;1.90;;
34212;SDS011;20477;51.390;8.102;2024-03-23T15:22:01;6.13;;;1.80;;
34212;SDS011;20477;51.390;8.102;2024-03-23T15:24:28;5.15;;;1.40;;
34212;SDS011;20477;51.390;8.102;2024-03-23T15:26:55;8.13;;;1.33;;
34212;SDS011;20477;51.390;8.102;2024-03-23T15:29:22;5.20;;;1.48;;
34212;SDS011;20477;51.390;8.102;2024-03-23T15:31:48;5.85;;;1.38;;